sensor_id;sensor_type;location;lat;lon;timestamp;temperature;humidity
5023;DHT22;2530;47.990;7.866;2022-12-18T00:01:53;-5.60;99.90
5023;DHT22;2530;47.990;7.866;2022-12-18T00:04:23;-5.40;99.90
5023;DHT22;2530;47.990;7.866;2022-12-18T00:06:49;-5.60;99.90
5023;DHT22;2530;47.990;7.866;2022-12-18T00:09:16;-5.70;99.90
5023;DHT22;2530;47.990;7.866;2022-12-18T00:11:41;-5.70;99.90
5023;DHT22;2530;47.990;7.866;2022-12-18T00:14:08;-5.90;99.90
5023;DHT22;2530;47.990;7.866;2022-12-18T00:16:34;-6.00;99.90
5023;DHT22;2530;47.990;7.866;2022-12-18T00:19:02;-6.20;99.90
5023;DHT22;2530;47.990;7.866;2022-12-18T00:21:29;-6.00;99.90
5023;DHT22;2530;47.990;7.866;2022-12-18T00:23:55;-6.10;99.90
5023;DHT22;2530;47.990;7.866;2022-12-18T00:26:32;-6.20;99.90
5023;DHT22;2530;47.990;7.866;2022-12-18T00:29:03;-6.30;99.90
5023;DHT22;2530;47.990;7.866;2022-12-18T00:31:30;-6.40;99.90
5023;DHT22;2530;47.990;7.866;2022-12-18T00:33:56;-6.40;99.90
5023;DHT22;2530;47.990;7.866;2022-12-18T00:36:24;-6.50;99.90
5023;DHT22;2530;47.990;7.866;2022-12-18T00:38:51;-6.60;99.90
5023;DHT22;2530;47.990;7.866;2022-12-18T00:41:18;-6.70;99.90
5023;DHT22;2530;47.990;7.866;2022-12-18T00:44:05;-6.60;99.90
5023;DHT22;2530;47.990;7.866;2022-12-18T00:46:31;-6.50;99.90
5023;DHT22;2530;47.990;7.866;2022-12-18T00:48:57;-6.50;99.90
5023;DHT22;2530;47.990;7.866;2022-12-18T00:51:24;-6.50;99.90
5023;DHT22;2530;47.990;7.866;2022-12-18T00:53:49;-6.60;99.90
5023;DHT22;2530;47.990;7.866;2022-12-18T00:56:15;-6.60;99.90
5023;DHT22;2530;47.990;7.866;2022-12-18T00:58:40;-6.80;99.90
5023;DHT22;2530;47.990;7.866;2022-12-18T01:01:06;-6.60;99.90
5023;DHT22;2530;47.990;7.866;2022-12-18T01:03:32;-6.50;99.90
5023;DHT22;2530;47.990;7.866;2022-12-18T01:05:58;-6.60;99.90
5023;DHT22;2530;47.990;7.866;2022-12-18T01:08:24;-6.60;99.90
5023;DHT22;2530;47.990;7.866;2022-12-18T01:10:49;-6.70;99.90
5023;DHT22;2530;47.990;7.866;2022-12-18T01:13:15;-6.70;99.90
5023;DHT22;2530;47.990;7.866;2022-12-18T01:15:47;-6.60;99.90
5023;DHT22;2530;47.990;7.866;2022-12-18T01:18:13;-6.50;99.90
5023;DHT22;2530;47.990;7.866;2022-12-18T01:20:38;-6.80;99.90
5023;DHT22;2530;47.990;7.866;2022-12-18T01:23:03;-6.90;99.90
5023;DHT22;2530;47.990;7.866;2022-12-18T01:25:29;-6.80;99.90
5023;DHT22;2530;47.990;7.866;2022-12-18T01:27:54;-6.70;99.90
5023;DHT22;2530;47.990;7.866;2022-12-18T01:30:20;-6.70;99.90
5023;DHT22;2530;47.990;7.866;2022-12-18T01:32:45;-6.80;99.90
5023;DHT22;2530;47.990;7.866;2022-12-18T01:35:11;-6.70;99.90
5023;DHT22;2530;47.990;7.866;2022-12-18T01:37:36;-6.80;99.90
5023;DHT22;2530;47.990;7.866;2022-12-18T01:40:02;-6.90;99.90
5023;DHT22;2530;47.990;7.866;2022-12-18T01:42:28;-6.70;99.90
5023;DHT22;2530;47.990;7.866;2022-12-18T01:47:27;-6.90;99.90
5023;DHT22;2530;47.990;7.866;2022-12-18T01:49:55;-6.70;99.90
5023;DHT22;2530;47.990;7.866;2022-12-18T01:52:21;-6.90;99.90
5023;DHT22;2530;47.990;7.866;2022-12-18T01:54:49;-7.00;99.90
5023;DHT22;2530;47.990;7.866;2022-12-18T01:57:15;-6.90;99.90
5023;DHT22;2530;47.990;7.866;2022-12-18T01:59:42;-6.80;99.90
5023;DHT22;2530;47.990;7.866;2022-12-18T02:02:09;-6.70;99.90
5023;DHT22;2530;47.990;7.866;2022-12-18T02:04:35;-6.80;99.90
5023;DHT22;2530;47.990;7.866;2022-12-18T02:07:42;-7.00;99.90
5023;DHT22;2530;47.990;7.866;2022-12-18T02:10:15;-7.00;99.90
5023;DHT22;2530;47.990;7.866;2022-12-18T02:13:08;-6.80;99.90
5023;DHT22;2530;47.990;7.866;2022-12-18T02:15:42;-6.90;99.90
5023;DHT22;2530;47.990;7.866;2022-12-18T02:21:04;-6.20;99.90
5023;DHT22;2530;47.990;7.866;2022-12-18T02:28:49;-6.80;99.90
5023;DHT22;2530;47.990;7.866;2022-12-18T02:31:21;-6.60;99.90
5023;DHT22;2530;47.990;7.866;2022-12-18T02:33:50;-6.70;99.90
5023;DHT22;2530;47.990;7.866;2022-12-18T02:36:18;-6.60;99.90
5023;DHT22;2530;47.990;7.866;2022-12-18T02:38:46;-6.50;99.90
5023;DHT22;2530;47.990;7.866;2022-12-18T02:41:13;-6.50;99.90
5023;DHT22;2530;47.990;7.866;2022-12-18T02:43:40;-6.60;99.90
5023;DHT22;2530;47.990;7.866;2022-12-18T02:46:33;-6.60;99.90
5023;DHT22;2530;47.990;7.866;2022-12-18T02:55:31;-6.70;99.90
5023;DHT22;2530;47.990;7.866;2022-12-18T02:58:10;-6.80;99.90
5023;DHT22;2530;47.990;7.866;2022-12-18T03:00:43;-6.60;99.90
5023;DHT22;2530;47.990;7.866;2022-12-18T03:03:23;-6.70;99.90
5023;DHT22;2530;47.990;7.866;2022-12-18T03:05:58;-6.80;99.90
5023;DHT22;2530;47.990;7.866;2022-12-18T03:08:31;-6.90;99.90
5023;DHT22;2530;47.990;7.866;2022-12-18T03:11:08;-6.70;99.90
5023;DHT22;2530;47.990;7.866;2022-12-18T03:13:45;-6.80;99.90
5023;DHT22;2530;47.990;7.866;2022-12-18T03:16:18;-6.90;99.90
5023;DHT22;2530;47.990;7.866;2022-12-18T03:18:48;-6.90;99.90
5023;DHT22;2530;47.990;7.866;2022-12-18T03:21:18;-6.90;99.90
5023;DHT22;2530;47.990;7.866;2022-12-18T03:23:49;-7.00;99.90
5023;DHT22;2530;47.990;7.866;2022-12-18T03:26:18;-7.00;99.90
5023;DHT22;2530;47.990;7.866;2022-12-18T03:28:59;-7.20;99.90
5023;DHT22;2530;47.990;7.866;2022-12-18T03:31:26;-7.30;99.90
5023;DHT22;2530;47.990;7.866;2022-12-18T03:33:57;-7.30;99.90
5023;DHT22;2530;47.990;7.866;2022-12-18T03:36:24;-7.40;99.90
5023;DHT22;2530;47.990;7.866;2022-12-18T03:38:50;-7.30;99.90
5023;DHT22;2530;47.990;7.866;2022-12-18T03:47:06;-7.40;99.90
5023;DHT22;2530;47.990;7.866;2022-12-18T03:49:46;-7.40;99.90
5023;DHT22;2530;47.990;7.866;2022-12-18T03:55:01;-7.50;99.90
5023;DHT22;2530;47.990;7.866;2022-12-18T03:57:29;-7.50;99.90
5023;DHT22;2530;47.990;7.866;2022-12-18T03:59:59;-7.50;99.90
5023;DHT22;2530;47.990;7.866;2022-12-18T04:02:25;-7.50;99.90
5023;DHT22;2530;47.990;7.866;2022-12-18T04:04:53;-7.50;99.90
5023;DHT22;2530;47.990;7.866;2022-12-18T04:07:21;-7.40;99.90
5023;DHT22;2530;47.990;7.866;2022-12-18T04:09:48;-7.50;99.90
5023;DHT22;2530;47.990;7.866;2022-12-18T04:12:15;-7.40;99.90
5023;DHT22;2530;47.990;7.866;2022-12-18T04:14:41;-7.40;99.90
5023;DHT22;2530;47.990;7.866;2022-12-18T04:17:06;-7.50;99.90
5023;DHT22;2530;47.990;7.866;2022-12-18T04:19:32;-7.40;99.90
5023;DHT22;2530;47.990;7.866;2022-12-18T04:21:57;-7.60;99.90
5023;DHT22;2530;47.990;7.866;2022-12-18T04:24:23;-7.70;99.90
5023;DHT22;2530;47.990;7.866;2022-12-18T04:26:48;-7.70;99.90
5023;DHT22;2530;47.990;7.866;2022-12-18T04:29:14;-7.80;99.90
5023;DHT22;2530;47.990;7.866;2022-12-18T04:31:39;-7.80;99.90
5023;DHT22;2530;47.990;7.866;2022-12-18T04:34:05;-7.80;99.90
5023;DHT22;2530;47.990;7.866;2022-12-18T04:36:30;-7.80;99.90
5023;DHT22;2530;47.990;7.866;2022-12-18T04:38:56;-7.80;99.90
5023;DHT22;2530;47.990;7.866;2022-12-18T04:41:22;-8.10;99.90
5023;DHT22;2530;47.990;7.866;2022-12-18T04:43:47;-8.10;99.90
5023;DHT22;2530;47.990;7.866;2022-12-18T04:46:13;-8.00;99.90
5023;DHT22;2530;47.990;7.866;2022-12-18T04:48:39;-8.20;99.90
5023;DHT22;2530;47.990;7.866;2022-12-18T04:51:05;-8.30;99.90
5023;DHT22;2530;47.990;7.866;2022-12-18T04:53:31;-8.30;99.90
5023;DHT22;2530;47.990;7.866;2022-12-18T04:56:23;-8.00;99.90
5023;DHT22;2530;47.990;7.866;2022-12-18T04:58:49;-8.10;99.90
5023;DHT22;2530;47.990;7.866;2022-12-18T05:01:17;-8.10;99.90
5023;DHT22;2530;47.990;7.866;2022-12-18T05:03:42;-7.90;99.90
5023;DHT22;2530;47.990;7.866;2022-12-18T05:06:09;-8.10;99.90
5023;DHT22;2530;47.990;7.866;2022-12-18T05:08:34;-8.00;99.90
5023;DHT22;2530;47.990;7.866;2022-12-18T05:11:07;-8.20;99.90
5023;DHT22;2530;47.990;7.866;2022-12-18T05:13:34;-8.30;99.90
5023;DHT22;2530;47.990;7.866;2022-12-18T05:16:00;-8.20;99.90
5023;DHT22;2530;47.990;7.866;2022-12-18T05:18:26;-8.40;99.90
5023;DHT22;2530;47.990;7.866;2022-12-18T05:20:53;-8.40;99.90
5023;DHT22;2530;47.990;7.866;2022-12-18T05:23:19;-8.50;99.90
5023;DHT22;2530;47.990;7.866;2022-12-18T05:25:56;-8.40;99.90
5023;DHT22;2530;47.990;7.866;2022-12-18T05:28:23;-8.40;99.90
5023;DHT22;2530;47.990;7.866;2022-12-18T05:30:54;-8.40;99.90
5023;DHT22;2530;47.990;7.866;2022-12-18T05:33:21;-8.40;99.90
5023;DHT22;2530;47.990;7.866;2022-12-18T05:35:51;-8.40;99.90
5023;DHT22;2530;47.990;7.866;2022-12-18T05:38:17;-8.20;99.90
5023;DHT22;2530;47.990;7.866;2022-12-18T05:40:43;-8.20;99.90
5023;DHT22;2530;47.990;7.866;2022-12-18T05:43:10;-8.30;99.90
5023;DHT22;2530;47.990;7.866;2022-12-18T05:45:39;-8.40;99.90
5023;DHT22;2530;47.990;7.866;2022-12-18T05:48:05;-8.40;99.90
5023;DHT22;2530;47.990;7.866;2022-12-18T05:50:33;-8.30;99.90
5023;DHT22;2530;47.990;7.866;2022-12-18T05:52:58;-8.50;99.90
5023;DHT22;2530;47.990;7.866;2022-12-18T05:55:24;-8.50;99.90
5023;DHT22;2530;47.990;7.866;2022-12-18T05:57:49;-8.40;99.90
5023;DHT22;2530;47.990;7.866;2022-12-18T06:00:15;-8.40;99.90
5023;DHT22;2530;47.990;7.866;2022-12-18T06:02:41;-8.50;99.90
5023;DHT22;2530;47.990;7.866;2022-12-18T06:05:06;-8.50;99.90
5023;DHT22;2530;47.990;7.866;2022-12-18T06:07:32;-8.40;99.90
5023;DHT22;2530;47.990;7.866;2022-12-18T06:09:58;-8.50;99.90
5023;DHT22;2530;47.990;7.866;2022-12-18T06:12:23;-8.60;99.90
5023;DHT22;2530;47.990;7.866;2022-12-18T06:14:49;-8.70;99.90
5023;DHT22;2530;47.990;7.866;2022-12-18T06:17:14;-8.60;99.90
5023;DHT22;2530;47.990;7.866;2022-12-18T06:19:39;-8.50;99.90
5023;DHT22;2530;47.990;7.866;2022-12-18T06:22:05;-8.50;99.90
5023;DHT22;2530;47.990;7.866;2022-12-18T06:24:31;-8.50;99.90
5023;DHT22;2530;47.990;7.866;2022-12-18T06:26:56;-8.30;99.90
5023;DHT22;2530;47.990;7.866;2022-12-18T06:29:22;-8.40;99.90
5023;DHT22;2530;47.990;7.866;2022-12-18T06:31:47;-8.40;99.90
5023;DHT22;2530;47.990;7.866;2022-12-18T06:34:13;-8.30;99.90
5023;DHT22;2530;47.990;7.866;2022-12-18T06:36:38;-8.30;99.90
5023;DHT22;2530;47.990;7.866;2022-12-18T06:39:04;-8.30;99.90
5023;DHT22;2530;47.990;7.866;2022-12-18T06:41:29;-8.30;99.90
5023;DHT22;2530;47.990;7.866;2022-12-18T06:43:55;-8.20;99.90
5023;DHT22;2530;47.990;7.866;2022-12-18T06:46:20;-8.30;99.90
5023;DHT22;2530;47.990;7.866;2022-12-18T06:48:47;-8.10;99.90
5023;DHT22;2530;47.990;7.866;2022-12-18T06:51:17;-8.10;99.90
5023;DHT22;2530;47.990;7.866;2022-12-18T06:53:42;-8.20;99.90
5023;DHT22;2530;47.990;7.866;2022-12-18T06:56:08;-8.30;99.90
5023;DHT22;2530;47.990;7.866;2022-12-18T06:58:33;-8.30;99.90
5023;DHT22;2530;47.990;7.866;2022-12-18T07:01:00;-8.40;99.90
5023;DHT22;2530;47.990;7.866;2022-12-18T07:03:26;-8.30;99.90
5023;DHT22;2530;47.990;7.866;2022-12-18T07:05:52;-8.10;99.90
5023;DHT22;2530;47.990;7.866;2022-12-18T07:08:17;-8.30;99.90
5023;DHT22;2530;47.990;7.866;2022-12-18T07:10:43;-8.40;99.90
5023;DHT22;2530;47.990;7.866;2022-12-18T07:13:09;-8.40;99.90
5023;DHT22;2530;47.990;7.866;2022-12-18T07:15:34;-8.30;99.90
5023;DHT22;2530;47.990;7.866;2022-12-18T07:18:00;-8.10;99.90
5023;DHT22;2530;47.990;7.866;2022-12-18T07:20:26;-8.30;99.90
5023;DHT22;2530;47.990;7.866;2022-12-18T07:22:51;-8.30;99.90
5023;DHT22;2530;47.990;7.866;2022-12-18T07:25:17;-8.40;99.90
5023;DHT22;2530;47.990;7.866;2022-12-18T07:27:42;-8.30;99.90
5023;DHT22;2530;47.990;7.866;2022-12-18T07:30:08;-8.40;99.90
5023;DHT22;2530;47.990;7.866;2022-12-18T07:32:34;-8.30;99.90
5023;DHT22;2530;47.990;7.866;2022-12-18T07:35:00;-8.40;99.90
5023;DHT22;2530;47.990;7.866;2022-12-18T07:37:25;-8.20;99.90
5023;DHT22;2530;47.990;7.866;2022-12-18T07:39:51;-8.20;99.90
5023;DHT22;2530;47.990;7.866;2022-12-18T07:42:16;-8.40;99.90
5023;DHT22;2530;47.990;7.866;2022-12-18T07:45:00;-8.20;99.90
5023;DHT22;2530;47.990;7.866;2022-12-18T07:47:27;-8.20;99.90
5023;DHT22;2530;47.990;7.866;2022-12-18T07:49:52;-8.00;99.90
5023;DHT22;2530;47.990;7.866;2022-12-18T07:52:18;-8.10;99.90
5023;DHT22;2530;47.990;7.866;2022-12-18T07:54:44;-8.10;99.90
5023;DHT22;2530;47.990;7.866;2022-12-18T07:57:10;-8.30;99.90
5023;DHT22;2530;47.990;7.866;2022-12-18T07:59:36;-8.20;99.90
5023;DHT22;2530;47.990;7.866;2022-12-18T08:02:02;-8.30;99.90
5023;DHT22;2530;47.990;7.866;2022-12-18T08:04:28;-8.10;99.90
5023;DHT22;2530;47.990;7.866;2022-12-18T08:06:53;-8.00;99.90
5023;DHT22;2530;47.990;7.866;2022-12-18T08:09:19;-8.10;99.90
5023;DHT22;2530;47.990;7.866;2022-12-18T08:11:44;-7.90;99.90
5023;DHT22;2530;47.990;7.866;2022-12-18T08:14:10;-7.90;99.90
5023;DHT22;2530;47.990;7.866;2022-12-18T08:16:36;-7.80;99.90
5023;DHT22;2530;47.990;7.866;2022-12-18T08:19:02;-7.90;99.90
5023;DHT22;2530;47.990;7.866;2022-12-18T08:24:35;-7.60;99.90
5023;DHT22;2530;47.990;7.866;2022-12-18T08:27:01;-7.60;99.90
5023;DHT22;2530;47.990;7.866;2022-12-18T08:29:26;-7.50;99.90
5023;DHT22;2530;47.990;7.866;2022-12-18T08:31:52;-7.70;99.90
5023;DHT22;2530;47.990;7.866;2022-12-18T08:34:17;-7.40;99.90
5023;DHT22;2530;47.990;7.866;2022-12-18T08:36:43;-7.30;99.90
5023;DHT22;2530;47.990;7.866;2022-12-18T08:39:09;-7.20;99.90
5023;DHT22;2530;47.990;7.866;2022-12-18T08:41:34;-7.10;99.90
5023;DHT22;2530;47.990;7.866;2022-12-18T08:44:00;-7.10;99.90
5023;DHT22;2530;47.990;7.866;2022-12-18T08:46:44;-7.10;99.90
5023;DHT22;2530;47.990;7.866;2022-12-18T08:49:10;-7.20;99.90
5023;DHT22;2530;47.990;7.866;2022-12-18T08:51:37;-7.00;99.90
5023;DHT22;2530;47.990;7.866;2022-12-18T08:54:03;-7.10;99.90
5023;DHT22;2530;47.990;7.866;2022-12-18T08:56:29;-7.00;99.90
5023;DHT22;2530;47.990;7.866;2022-12-18T08:58:55;-7.00;99.90
5023;DHT22;2530;47.990;7.866;2022-12-18T09:01:22;-6.90;99.90
5023;DHT22;2530;47.990;7.866;2022-12-18T09:03:49;-6.60;99.90
5023;DHT22;2530;47.990;7.866;2022-12-18T09:06:19;-6.70;99.90
5023;DHT22;2530;47.990;7.866;2022-12-18T09:08:45;-6.60;99.90
5023;DHT22;2530;47.990;7.866;2022-12-18T09:11:18;-6.60;99.90
5023;DHT22;2530;47.990;7.866;2022-12-18T09:13:44;-6.60;99.90
5023;DHT22;2530;47.990;7.866;2022-12-18T09:16:10;-6.50;99.90
5023;DHT22;2530;47.990;7.866;2022-12-18T09:18:35;-6.30;99.90
5023;DHT22;2530;47.990;7.866;2022-12-18T09:21:11;-6.40;99.90
5023;DHT22;2530;47.990;7.866;2022-12-18T09:23:37;-6.30;99.90
5023;DHT22;2530;47.990;7.866;2022-12-18T09:26:02;-6.20;99.90
5023;DHT22;2530;47.990;7.866;2022-12-18T09:28:28;-6.10;99.90
5023;DHT22;2530;47.990;7.866;2022-12-18T09:30:54;-6.00;99.90
5023;DHT22;2530;47.990;7.866;2022-12-18T09:33:19;-5.90;99.90
5023;DHT22;2530;47.990;7.866;2022-12-18T09:35:45;-5.70;99.90
5023;DHT22;2530;47.990;7.866;2022-12-18T09:38:13;-5.60;99.90
5023;DHT22;2530;47.990;7.866;2022-12-18T09:40:48;-5.70;99.90
5023;DHT22;2530;47.990;7.866;2022-12-18T09:43:19;-5.50;99.90
5023;DHT22;2530;47.990;7.866;2022-12-18T09:45:49;-5.40;99.90
5023;DHT22;2530;47.990;7.866;2022-12-18T09:48:28;-5.40;99.90
5023;DHT22;2530;47.990;7.866;2022-12-18T09:51:10;-5.50;99.90
5023;DHT22;2530;47.990;7.866;2022-12-18T09:53:40;-5.30;99.90
5023;DHT22;2530;47.990;7.866;2022-12-18T09:56:10;-5.10;99.90
5023;DHT22;2530;47.990;7.866;2022-12-18T09:58:46;-4.90;99.90
5023;DHT22;2530;47.990;7.866;2022-12-18T10:01:21;-4.90;99.90
5023;DHT22;2530;47.990;7.866;2022-12-18T10:03:48;-4.90;99.90
5023;DHT22;2530;47.990;7.866;2022-12-18T10:06:35;-4.70;99.90
5023;DHT22;2530;47.990;7.866;2022-12-18T10:09:31;-4.70;99.90
5023;DHT22;2530;47.990;7.866;2022-12-18T10:12:12;-4.50;99.90
5023;DHT22;2530;47.990;7.866;2022-12-18T10:19:58;-4.50;99.90
5023;DHT22;2530;47.990;7.866;2022-12-18T10:25:31;-3.80;99.90
5023;DHT22;2530;47.990;7.866;2022-12-18T10:28:13;-3.80;99.90
5023;DHT22;2530;47.990;7.866;2022-12-18T10:30:43;-3.70;99.90
5023;DHT22;2530;47.990;7.866;2022-12-18T10:33:19;-3.60;99.90
5023;DHT22;2530;47.990;7.866;2022-12-18T10:35:45;-3.50;99.90
5023;DHT22;2530;47.990;7.866;2022-12-18T10:48:52;-2.70;99.90
5023;DHT22;2530;47.990;7.866;2022-12-18T10:51:36;-2.50;99.90
5023;DHT22;2530;47.990;7.866;2022-12-18T10:54:12;-2.20;99.90
5023;DHT22;2530;47.990;7.866;2022-12-18T10:56:39;-1.80;99.90
5023;DHT22;2530;47.990;7.866;2022-12-18T10:59:16;-1.70;99.90
5023;DHT22;2530;47.990;7.866;2022-12-18T11:01:57;-1.50;99.90
5023;DHT22;2530;47.990;7.866;2022-12-18T11:04:25;-1.40;99.90
5023;DHT22;2530;47.990;7.866;2022-12-18T11:09:25;-1.50;99.90
5023;DHT22;2530;47.990;7.866;2022-12-18T11:12:00;-1.40;99.90
5023;DHT22;2530;47.990;7.866;2022-12-18T11:14:33;-1.10;99.90
5023;DHT22;2530;47.990;7.866;2022-12-18T11:17:00;-0.90;99.90
5023;DHT22;2530;47.990;7.866;2022-12-18T11:19:33;-0.90;99.90
5023;DHT22;2530;47.990;7.866;2022-12-18T11:22:00;-1.00;99.90
5023;DHT22;2530;47.990;7.866;2022-12-18T11:24:28;-1.30;99.90
5023;DHT22;2530;47.990;7.866;2022-12-18T11:26:57;-0.60;99.90
5023;DHT22;2530;47.990;7.866;2022-12-18T11:29:35;-0.80;99.90
5023;DHT22;2530;47.990;7.866;2022-12-18T11:32:29;-0.90;99.90
5023;DHT22;2530;47.990;7.866;2022-12-18T11:35:17;-1.40;99.90
5023;DHT22;2530;47.990;7.866;2022-12-18T11:37:49;-1.10;99.90
5023;DHT22;2530;47.990;7.866;2022-12-18T11:40:24;-1.70;99.90
5023;DHT22;2530;47.990;7.866;2022-12-18T11:45:42;-2.20;99.90
5023;DHT22;2530;47.990;7.866;2022-12-18T11:48:27;-1.90;99.90
5023;DHT22;2530;47.990;7.866;2022-12-18T11:50:58;-1.50;99.90
5023;DHT22;2530;47.990;7.866;2022-12-18T11:53:25;-1.40;99.90
5023;DHT22;2530;47.990;7.866;2022-12-18T12:01:50;-1.60;99.90
5023;DHT22;2530;47.990;7.866;2022-12-18T12:07:32;-1.10;99.90
5023;DHT22;2530;47.990;7.866;2022-12-18T12:11:22;-1.40;99.90
5023;DHT22;2530;47.990;7.866;2022-12-18T12:16:22;-1.30;99.90
5023;DHT22;2530;47.990;7.866;2022-12-18T12:21:46;-1.50;99.90
5023;DHT22;2530;47.990;7.866;2022-12-18T12:24:48;-1.80;99.90
5023;DHT22;2530;47.990;7.866;2022-12-18T12:27:36;-1.80;99.90
5023;DHT22;2530;47.990;7.866;2022-12-18T12:32:39;-1.80;99.90
5023;DHT22;2530;47.990;7.866;2022-12-18T12:40:26;-1.60;99.90
5023;DHT22;2530;47.990;7.866;2022-12-18T12:42:57;-1.70;99.90
5023;DHT22;2530;47.990;7.866;2022-12-18T12:45:57;-1.70;99.90
5023;DHT22;2530;47.990;7.866;2022-12-18T12:51:01;-1.50;99.90
5023;DHT22;2530;47.990;7.866;2022-12-18T12:53:35;-1.20;99.90
5023;DHT22;2530;47.990;7.866;2022-12-18T12:56:02;-1.00;99.90
5023;DHT22;2530;47.990;7.866;2022-12-18T12:58:34;-1.20;99.90
5023;DHT22;2530;47.990;7.866;2022-12-18T13:01:14;-1.40;99.90
5023;DHT22;2530;47.990;7.866;2022-12-18T13:09:14;-1.60;99.90
5023;DHT22;2530;47.990;7.866;2022-12-18T13:11:42;-1.60;99.90
5023;DHT22;2530;47.990;7.866;2022-12-18T13:14:38;-1.80;99.90
5023;DHT22;2530;47.990;7.866;2022-12-18T13:19:50;-1.30;99.90
5023;DHT22;2530;47.990;7.866;2022-12-18T13:22:24;-1.10;99.90
5023;DHT22;2530;47.990;7.866;2022-12-18T13:24:50;-1.00;99.90
5023;DHT22;2530;47.990;7.866;2022-12-18T13:38:43;-1.30;99.90
5023;DHT22;2530;47.990;7.866;2022-12-18T13:43:54;-0.80;99.90
5023;DHT22;2530;47.990;7.866;2022-12-18T13:46:28;-0.80;99.90
5023;DHT22;2530;47.990;7.866;2022-12-18T13:48:59;-0.90;99.90
5023;DHT22;2530;47.990;7.866;2022-12-18T13:51:26;-0.90;99.90
5023;DHT22;2530;47.990;7.866;2022-12-18T13:54:06;-1.00;99.90
5023;DHT22;2530;47.990;7.866;2022-12-18T13:56:44;-0.90;99.90
5023;DHT22;2530;47.990;7.866;2022-12-18T14:01:47;-1.20;99.90
5023;DHT22;2530;47.990;7.866;2022-12-18T14:04:30;-1.40;99.90
5023;DHT22;2530;47.990;7.866;2022-12-18T14:09:30;-1.20;99.90
5023;DHT22;2530;47.990;7.866;2022-12-18T14:11:57;-1.10;99.90
5023;DHT22;2530;47.990;7.866;2022-12-18T14:14:44;-1.20;99.90
5023;DHT22;2530;47.990;7.866;2022-12-18T14:17:11;-1.30;99.90
5023;DHT22;2530;47.990;7.866;2022-12-18T14:19:44;-1.30;99.90
5023;DHT22;2530;47.990;7.866;2022-12-18T14:22:22;-1.20;99.90
5023;DHT22;2530;47.990;7.866;2022-12-18T14:30:41;-1.10;99.90
5023;DHT22;2530;47.990;7.866;2022-12-18T14:36:02;-1.70;99.90
5023;DHT22;2530;47.990;7.866;2022-12-18T14:38:34;-1.50;99.90
5023;DHT22;2530;47.990;7.866;2022-12-18T14:41:01;-1.50;99.90
5023;DHT22;2530;47.990;7.866;2022-12-18T14:43:29;-1.80;99.90
5023;DHT22;2530;47.990;7.866;2022-12-18T14:45:55;-1.50;99.90
5023;DHT22;2530;47.990;7.866;2022-12-18T14:48:35;-1.50;99.90
5023;DHT22;2530;47.990;7.866;2022-12-18T14:53:41;-1.50;99.90
5023;DHT22;2530;47.990;7.866;2022-12-18T14:59:12;-1.20;99.90
5023;DHT22;2530;47.990;7.866;2022-12-18T15:04:34;-1.70;99.90
5023;DHT22;2530;47.990;7.866;2022-12-18T15:07:22;-1.70;99.90
5023;DHT22;2530;47.990;7.866;2022-12-18T15:12:39;-1.70;99.90
5023;DHT22;2530;47.990;7.866;2022-12-18T15:20:52;-1.60;99.90
5023;DHT22;2530;47.990;7.866;2022-12-18T15:23:24;-1.60;99.90
5023;DHT22;2530;47.990;7.866;2022-12-18T15:26:00;-1.70;99.90
5023;DHT22;2530;47.990;7.866;2022-12-18T15:28:50;-1.80;99.90
5023;DHT22;2530;47.990;7.866;2022-12-18T15:34:02;-1.80;99.90
5023;DHT22;2530;47.990;7.866;2022-12-18T15:36:29;-1.80;99.90
5023;DHT22;2530;47.990;7.866;2022-12-18T15:38:55;-1.80;99.90
5023;DHT22;2530;47.990;7.866;2022-12-18T15:41:23;-1.70;99.90
5023;DHT22;2530;47.990;7.866;2022-12-18T15:43:51;-1.60;99.90
5023;DHT22;2530;47.990;7.866;2022-12-18T15:46:19;-1.60;99.90
5023;DHT22;2530;47.990;7.866;2022-12-18T15:48:54;-1.60;99.90
5023;DHT22;2530;47.990;7.866;2022-12-18T15:51:28;-1.60;99.90
5023;DHT22;2530;47.990;7.866;2022-12-18T15:53:56;-1.70;99.90
5023;DHT22;2530;47.990;7.866;2022-12-18T15:56:23;-1.90;99.90
5023;DHT22;2530;47.990;7.866;2022-12-18T15:59:18;-1.90;99.90
5023;DHT22;2530;47.990;7.866;2022-12-18T16:01:47;-1.90;99.90
5023;DHT22;2530;47.990;7.866;2022-12-18T16:04:15;-1.90;99.90
5023;DHT22;2530;47.990;7.866;2022-12-18T16:06:41;-2.00;99.90
5023;DHT22;2530;47.990;7.866;2022-12-18T16:09:07;-2.00;99.90
5023;DHT22;2530;47.990;7.866;2022-12-18T16:11:34;-2.00;99.90
5023;DHT22;2530;47.990;7.866;2022-12-18T16:14:23;-2.00;99.90
5023;DHT22;2530;47.990;7.866;2022-12-18T16:16:56;-1.90;99.90
5023;DHT22;2530;47.990;7.866;2022-12-18T16:19:23;-2.00;99.90
5023;DHT22;2530;47.990;7.866;2022-12-18T16:21:50;-1.90;99.90
5023;DHT22;2530;47.990;7.866;2022-12-18T16:24:21;-2.00;99.90
5023;DHT22;2530;47.990;7.866;2022-12-18T16:26:48;-2.00;99.90
5023;DHT22;2530;47.990;7.866;2022-12-18T16:29:14;-1.90;99.90
5023;DHT22;2530;47.990;7.866;2022-12-18T16:31:40;-1.90;99.90
5023;DHT22;2530;47.990;7.866;2022-12-18T16:34:20;-2.00;99.90
5023;DHT22;2530;47.990;7.866;2022-12-18T16:36:48;-2.00;99.90
5023;DHT22;2530;47.990;7.866;2022-12-18T16:39:14;-2.00;99.90
5023;DHT22;2530;47.990;7.866;2022-12-18T16:41:39;-1.90;99.90
5023;DHT22;2530;47.990;7.866;2022-12-18T16:44:05;-1.70;99.90
5023;DHT22;2530;47.990;7.866;2022-12-18T16:46:30;-1.80;99.90
5023;DHT22;2530;47.990;7.866;2022-12-18T16:48:59;-1.70;99.90
5023;DHT22;2530;47.990;7.866;2022-12-18T16:51:25;-1.80;99.90
5023;DHT22;2530;47.990;7.866;2022-12-18T16:53:52;-1.80;99.90
5023;DHT22;2530;47.990;7.866;2022-12-18T16:56:19;-1.90;99.90
5023;DHT22;2530;47.990;7.866;2022-12-18T16:58:50;-1.80;99.90
5023;DHT22;2530;47.990;7.866;2022-12-18T17:01:15;-1.70;99.90
5023;DHT22;2530;47.990;7.866;2022-12-18T17:03:41;-1.80;99.90
5023;DHT22;2530;47.990;7.866;2022-12-18T17:06:06;-1.80;99.90
5023;DHT22;2530;47.990;7.866;2022-12-18T17:08:32;-1.50;99.90
5023;DHT22;2530;47.990;7.866;2022-12-18T17:11:05;-1.50;99.90
5023;DHT22;2530;47.990;7.866;2022-12-18T17:13:32;-1.60;99.90
5023;DHT22;2530;47.990;7.866;2022-12-18T17:16:05;-1.50;99.90
5023;DHT22;2530;47.990;7.866;2022-12-18T17:18:32;-1.50;99.90
5023;DHT22;2530;47.990;7.866;2022-12-18T17:20:59;-1.70;99.90
5023;DHT22;2530;47.990;7.866;2022-12-18T17:23:25;-1.70;99.90
5023;DHT22;2530;47.990;7.866;2022-12-18T17:25:54;-1.80;99.90
5023;DHT22;2530;47.990;7.866;2022-12-18T17:28:20;-1.50;99.90
5023;DHT22;2530;47.990;7.866;2022-12-18T17:30:46;-1.70;99.90
5023;DHT22;2530;47.990;7.866;2022-12-18T17:33:11;-1.50;99.90
5023;DHT22;2530;47.990;7.866;2022-12-18T17:35:37;-1.70;99.90
5023;DHT22;2530;47.990;7.866;2022-12-18T17:38:02;-1.70;99.90
5023;DHT22;2530;47.990;7.866;2022-12-18T17:40:28;-1.80;99.90
5023;DHT22;2530;47.990;7.866;2022-12-18T17:42:53;-1.70;99.90
5023;DHT22;2530;47.990;7.866;2022-12-18T17:45:19;-1.60;99.90
5023;DHT22;2530;47.990;7.866;2022-12-18T17:47:44;-1.60;99.90
5023;DHT22;2530;47.990;7.866;2022-12-18T17:50:10;-1.50;99.90
5023;DHT22;2530;47.990;7.866;2022-12-18T17:52:36;-1.50;99.90
5023;DHT22;2530;47.990;7.866;2022-12-18T17:55:01;-1.60;99.90
5023;DHT22;2530;47.990;7.866;2022-12-18T17:57:27;-1.60;99.90
5023;DHT22;2530;47.990;7.866;2022-12-18T17:59:52;-1.60;99.90
5023;DHT22;2530;47.990;7.866;2022-12-18T18:02:18;-1.60;99.90
5023;DHT22;2530;47.990;7.866;2022-12-18T18:04:43;-1.60;99.90
5023;DHT22;2530;47.990;7.866;2022-12-18T18:07:09;-1.70;99.90
5023;DHT22;2530;47.990;7.866;2022-12-18T18:09:35;-1.60;99.90
5023;DHT22;2530;47.990;7.866;2022-12-18T18:12:00;-1.40;99.90
5023;DHT22;2530;47.990;7.866;2022-12-18T18:14:44;-1.50;99.90
5023;DHT22;2530;47.990;7.866;2022-12-18T18:17:10;-1.60;99.90
5023;DHT22;2530;47.990;7.866;2022-12-18T18:19:35;-1.50;99.90
5023;DHT22;2530;47.990;7.866;2022-12-18T18:22:01;-1.50;99.90
5023;DHT22;2530;47.990;7.866;2022-12-18T18:24:26;-1.50;99.90
5023;DHT22;2530;47.990;7.866;2022-12-18T18:26:52;-1.50;99.90
5023;DHT22;2530;47.990;7.866;2022-12-18T18:29:20;-1.40;99.90
5023;DHT22;2530;47.990;7.866;2022-12-18T18:31:46;-1.40;99.90